sensor_id;sensor_type;location;lat;lon;timestamp;P1;durP1;ratioP1;P2;durP2;ratioP2
35312;SDS011;21425;50.454;30.466;2023-08-30T00:00:41;27.63;;;18.02;;
35312;SDS011;21425;50.454;30.466;2023-08-30T00:03:07;24.70;;;18.88;;
35312;SDS011;21425;50.454;30.466;2023-08-30T00:05:32;27.88;;;17.85;;
35312;SDS011;21425;50.454;30.466;2023-08-30T00:07:58;29.05;;;19.35;;
35312;SDS011;21425;50.454;30.466;2023-08-30T00:10:24;27.88;;;17.90;;
35312;SDS011;21425;50.454;30.466;2023-08-30T00:12:50;25.27;;;18.35;;
35312;SDS011;21425;50.454;30.466;2023-08-30T00:15:16;26.67;;;18.63;;
35312;SDS011;21425;50.454;30.466;2023-08-30T00:17:42;27.90;;;19.13;;
35312;SDS011;21425;50.454;30.466;2023-08-30T00:20:09;26.83;;;19.90;;
35312;SDS011;21425;50.454;30.466;2023-08-30T00:22:36;25.05;;;17.90;;
35312;SDS011;21425;50.454;30.466;2023-08-30T00:25:02;28.55;;;19.85;;
35312;SDS011;21425;50.454;30.466;2023-08-30T00:27:28;25.30;;;19.60;;
35312;SDS011;21425;50.454;30.466;2023-08-30T00:29:54;25.00;;;18.65;;
35312;SDS011;21425;50.454;30.466;2023-08-30T00:32:19;26.58;;;20.33;;
35312;SDS011;21425;50.454;30.466;2023-08-30T00:34:46;28.70;;;19.95;;
35312;SDS011;21425;50.454;30.466;2023-08-30T00:37:12;24.40;;;18.65;;
35312;SDS011;21425;50.454;30.466;2023-08-30T00:39:38;30.23;;;19.67;;
35312;SDS011;21425;50.454;30.466;2023-08-30T00:42:04;31.83;;;19.83;;
35312;SDS011;21425;50.454;30.466;2023-08-30T00:44:32;32.25;;;20.00;;
35312;SDS011;21425;50.454;30.466;2023-08-30T00:47:01;29.85;;;21.02;;
35312;SDS011;21425;50.454;30.466;2023-08-30T00:49:28;29.95;;;20.48;;
35312;SDS011;21425;50.454;30.466;2023-08-30T00:51:55;27.58;;;19.17;;
35312;SDS011;21425;50.454;30.466;2023-08-30T00:54:22;31.10;;;20.13;;
35312;SDS011;21425;50.454;30.466;2023-08-30T00:56:48;30.60;;;19.88;;
35312;SDS011;21425;50.454;30.466;2023-08-30T00:59:15;30.50;;;20.77;;
35312;SDS011;21425;50.454;30.466;2023-08-30T01:01:41;25.50;;;19.90;;
35312;SDS011;21425;50.454;30.466;2023-08-30T01:04:07;30.30;;;20.08;;
35312;SDS011;21425;50.454;30.466;2023-08-30T01:06:33;29.55;;;20.23;;
35312;SDS011;21425;50.454;30.466;2023-08-30T01:09:00;27.83;;;19.75;;
35312;SDS011;21425;50.454;30.466;2023-08-30T01:14:15;29.70;;;20.50;;
35312;SDS011;21425;50.454;30.466;2023-08-30T01:16:46;29.27;;;20.67;;
35312;SDS011;21425;50.454;30.466;2023-08-30T01:19:25;26.35;;;19.73;;
35312;SDS011;21425;50.454;30.466;2023-08-30T01:24:25;33.08;;;21.77;;
35312;SDS011;21425;50.454;30.466;2023-08-30T01:27:10;27.05;;;20.65;;
35312;SDS011;21425;50.454;30.466;2023-08-30T01:29:37;25.23;;;19.52;;
35312;SDS011;21425;50.454;30.466;2023-08-30T01:32:07;25.98;;;20.42;;
35312;SDS011;21425;50.454;30.466;2023-08-30T01:34:36;28.75;;;21.60;;
35312;SDS011;21425;50.454;30.466;2023-08-30T01:37:04;33.35;;;22.20;;
35312;SDS011;21425;50.454;30.466;2023-08-30T01:39:32;27.80;;;20.08;;
35312;SDS011;21425;50.454;30.466;2023-08-30T01:42:01;27.73;;;20.75;;
35312;SDS011;21425;50.454;30.466;2023-08-30T01:44:28;27.95;;;21.23;;
35312;SDS011;21425;50.454;30.466;2023-08-30T01:46:54;29.75;;;21.95;;
35312;SDS011;21425;50.454;30.466;2023-08-30T01:49:21;29.52;;;19.88;;
35312;SDS011;21425;50.454;30.466;2023-08-30T01:51:47;28.42;;;21.90;;
35312;SDS011;21425;50.454;30.466;2023-08-30T01:54:14;32.00;;;20.52;;
35312;SDS011;21425;50.454;30.466;2023-08-30T01:56:43;30.02;;;20.95;;
35312;SDS011;21425;50.454;30.466;2023-08-30T01:59:09;27.67;;;20.23;;
35312;SDS011;21425;50.454;30.466;2023-08-30T02:01:35;26.75;;;20.23;;
35312;SDS011;21425;50.454;30.466;2023-08-30T02:04:01;28.70;;;21.30;;
35312;SDS011;21425;50.454;30.466;2023-08-30T02:06:30;29.83;;;21.73;;
35312;SDS011;21425;50.454;30.466;2023-08-30T02:09:07;27.45;;;20.35;;
35312;SDS011;21425;50.454;30.466;2023-08-30T02:11:40;30.05;;;20.92;;
35312;SDS011;21425;50.454;30.466;2023-08-30T02:14:09;27.25;;;21.00;;
35312;SDS011;21425;50.454;30.466;2023-08-30T02:16:37;40.90;;;23.17;;
35312;SDS011;21425;50.454;30.466;2023-08-30T02:19:04;28.50;;;20.42;;
35312;SDS011;21425;50.454;30.466;2023-08-30T02:21:31;29.95;;;21.02;;
35312;SDS011;21425;50.454;30.466;2023-08-30T02:23:57;30.00;;;21.13;;
35312;SDS011;21425;50.454;30.466;2023-08-30T02:26:23;32.45;;;21.52;;
35312;SDS011;21425;50.454;30.466;2023-08-30T02:28:49;31.95;;;20.80;;
35312;SDS011;21425;50.454;30.466;2023-08-30T02:31:15;32.22;;;21.30;;
35312;SDS011;21425;50.454;30.466;2023-08-30T02:33:41;28.40;;;20.95;;
35312;SDS011;21425;50.454;30.466;2023-08-30T02:36:07;36.70;;;21.33;;
35312;SDS011;21425;50.454;30.466;2023-08-30T02:38:33;31.35;;;20.50;;
35312;SDS011;21425;50.454;30.466;2023-08-30T02:40:59;33.80;;;21.92;;
35312;SDS011;21425;50.454;30.466;2023-08-30T02:43:24;29.83;;;20.77;;
35312;SDS011;21425;50.454;30.466;2023-08-30T02:45:50;30.27;;;21.70;;
35312;SDS011;21425;50.454;30.466;2023-08-30T02:48:17;29.13;;;21.92;;
35312;SDS011;21425;50.454;30.466;2023-08-30T02:50:43;31.80;;;22.20;;
35312;SDS011;21425;50.454;30.466;2023-08-30T02:53:09;29.13;;;21.00;;
35312;SDS011;21425;50.454;30.466;2023-08-30T02:55:34;32.03;;;21.48;;
35312;SDS011;21425;50.454;30.466;2023-08-30T02:58:00;29.17;;;22.05;;
35312;SDS011;21425;50.454;30.466;2023-08-30T03:00:26;28.08;;;21.23;;
35312;SDS011;21425;50.454;30.466;2023-08-30T03:02:51;27.00;;;21.58;;
35312;SDS011;21425;50.454;30.466;2023-08-30T03:05:17;29.63;;;21.00;;
35312;SDS011;21425;50.454;30.466;2023-08-30T03:07:43;32.25;;;23.10;;
35312;SDS011;21425;50.454;30.466;2023-08-30T03:10:09;32.70;;;22.17;;
35312;SDS011;21425;50.454;30.466;2023-08-30T03:12:36;28.92;;;21.92;;
35312;SDS011;21425;50.454;30.466;2023-08-30T03:15:02;28.23;;;21.23;;
35312;SDS011;21425;50.454;30.466;2023-08-30T03:17:29;28.60;;;20.92;;
35312;SDS011;21425;50.454;30.466;2023-08-30T03:19:55;30.10;;;21.48;;
35312;SDS011;21425;50.454;30.466;2023-08-30T03:22:21;35.92;;;21.88;;
35312;SDS011;21425;50.454;30.466;2023-08-30T03:24:47;31.48;;;22.70;;
35312;SDS011;21425;50.454;30.466;2023-08-30T03:27:14;29.20;;;20.90;;
35312;SDS011;21425;50.454;30.466;2023-08-30T03:29:40;28.65;;;21.50;;
35312;SDS011;21425;50.454;30.466;2023-08-30T03:32:05;32.78;;;21.65;;
35312;SDS011;21425;50.454;30.466;2023-08-30T03:34:31;31.65;;;21.10;;
35312;SDS011;21425;50.454;30.466;2023-08-30T03:36:57;28.10;;;20.88;;
35312;SDS011;21425;50.454;30.466;2023-08-30T03:39:23;28.23;;;21.90;;
35312;SDS011;21425;50.454;30.466;2023-08-30T03:41:49;27.08;;;21.17;;
35312;SDS011;21425;50.454;30.466;2023-08-30T03:44:15;31.77;;;22.02;;
35312;SDS011;21425;50.454;30.466;2023-08-30T03:46:41;28.60;;;22.15;;
35312;SDS011;21425;50.454;30.466;2023-08-30T03:49:07;29.52;;;21.40;;
35312;SDS011;21425;50.454;30.466;2023-08-30T03:51:33;32.67;;;22.58;;
35312;SDS011;21425;50.454;30.466;2023-08-30T03:53:59;29.60;;;22.35;;
35312;SDS011;21425;50.454;30.466;2023-08-30T03:56:25;31.92;;;22.20;;
35312;SDS011;21425;50.454;30.466;2023-08-30T03:58:50;31.85;;;21.92;;
35312;SDS011;21425;50.454;30.466;2023-08-30T04:01:16;29.80;;;22.20;;
35312;SDS011;21425;50.454;30.466;2023-08-30T04:03:42;34.03;;;21.80;;
35312;SDS011;21425;50.454;30.466;2023-08-30T04:06:08;35.20;;;22.40;;
35312;SDS011;21425;50.454;30.466;2023-08-30T04:08:34;29.05;;;21.67;;
35312;SDS011;21425;50.454;30.466;2023-08-30T04:10:59;32.60;;;21.80;;
35312;SDS011;21425;50.454;30.466;2023-08-30T04:13:25;25.30;;;20.63;;
35312;SDS011;21425;50.454;30.466;2023-08-30T04:15:51;32.20;;;22.10;;
35312;SDS011;21425;50.454;30.466;2023-08-30T04:18:17;29.10;;;21.42;;
35312;SDS011;21425;50.454;30.466;2023-08-30T04:20:43;31.88;;;21.55;;
35312;SDS011;21425;50.454;30.466;2023-08-30T04:23:10;28.48;;;21.63;;
35312;SDS011;21425;50.454;30.466;2023-08-30T04:25:36;30.27;;;21.65;;
35312;SDS011;21425;50.454;30.466;2023-08-30T04:28:02;33.40;;;21.10;;
35312;SDS011;21425;50.454;30.466;2023-08-30T04:30:27;28.45;;;20.23;;
35312;SDS011;21425;50.454;30.466;2023-08-30T04:32:53;30.95;;;21.90;;
35312;SDS011;21425;50.454;30.466;2023-08-30T04:35:19;36.40;;;22.17;;
35312;SDS011;21425;50.454;30.466;2023-08-30T04:37:45;38.42;;;22.85;;
35312;SDS011;21425;50.454;30.466;2023-08-30T04:40:11;29.30;;;21.13;;
35312;SDS011;21425;50.454;30.466;2023-08-30T04:42:37;30.48;;;21.15;;
35312;SDS011;21425;50.454;30.466;2023-08-30T04:45:06;27.38;;;20.55;;
35312;SDS011;21425;50.454;30.466;2023-08-30T04:47:33;28.85;;;20.77;;
35312;SDS011;21425;50.454;30.466;2023-08-30T04:49:59;32.95;;;19.50;;
35312;SDS011;21425;50.454;30.466;2023-08-30T04:52:25;27.33;;;20.65;;
35312;SDS011;21425;50.454;30.466;2023-08-30T04:54:51;29.88;;;20.58;;
35312;SDS011;21425;50.454;30.466;2023-08-30T04:57:17;27.90;;;19.98;;
35312;SDS011;21425;50.454;30.466;2023-08-30T04:59:43;27.15;;;18.77;;
35312;SDS011;21425;50.454;30.466;2023-08-30T05:02:09;27.48;;;20.23;;
35312;SDS011;21425;50.454;30.466;2023-08-30T05:04:36;26.70;;;19.73;;
35312;SDS011;21425;50.454;30.466;2023-08-30T05:07:02;26.90;;;18.85;;
35312;SDS011;21425;50.454;30.466;2023-08-30T05:09:28;31.88;;;20.48;;
35312;SDS011;21425;50.454;30.466;2023-08-30T05:11:54;30.83;;;19.73;;
35312;SDS011;21425;50.454;30.466;2023-08-30T05:14:20;26.33;;;18.67;;
35312;SDS011;21425;50.454;30.466;2023-08-30T05:16:46;25.50;;;18.60;;
35312;SDS011;21425;50.454;30.466;2023-08-30T05:19:12;29.00;;;19.40;;
35312;SDS011;21425;50.454;30.466;2023-08-30T05:21:37;25.17;;;18.27;;
35312;SDS011;21425;50.454;30.466;2023-08-30T05:24:03;23.40;;;18.38;;
35312;SDS011;21425;50.454;30.466;2023-08-30T05:26:32;29.48;;;18.50;;
35312;SDS011;21425;50.454;30.466;2023-08-30T05:28:58;24.80;;;18.02;;
35312;SDS011;21425;50.454;30.466;2023-08-30T05:31:23;27.23;;;18.55;;
35312;SDS011;21425;50.454;30.466;2023-08-30T05:33:49;23.65;;;18.67;;
35312;SDS011;21425;50.454;30.466;2023-08-30T05:36:15;22.23;;;17.27;;
35312;SDS011;21425;50.454;30.466;2023-08-30T05:38:41;29.73;;;18.42;;
35312;SDS011;21425;50.454;30.466;2023-08-30T05:41:07;25.27;;;17.52;;
35312;SDS011;21425;50.454;30.466;2023-08-30T05:43:33;28.27;;;16.73;;
35312;SDS011;21425;50.454;30.466;2023-08-30T05:45:59;25.85;;;17.27;;
35312;SDS011;21425;50.454;30.466;2023-08-30T05:48:27;27.77;;;17.52;;
35312;SDS011;21425;50.454;30.466;2023-08-30T05:50:56;23.23;;;16.23;;
35312;SDS011;21425;50.454;30.466;2023-08-30T05:53:22;24.73;;;16.38;;
35312;SDS011;21425;50.454;30.466;2023-08-30T05:55:48;31.55;;;16.55;;
35312;SDS011;21425;50.454;30.466;2023-08-30T05:58:14;19.50;;;15.18;;
35312;SDS011;21425;50.454;30.466;2023-08-30T06:00:40;24.73;;;16.42;;
35312;SDS011;21425;50.454;30.466;2023-08-30T06:03:06;23.45;;;15.15;;
35312;SDS011;21425;50.454;30.466;2023-08-30T06:05:33;26.02;;;14.80;;
35312;SDS011;21425;50.454;30.466;2023-08-30T06:07:58;23.05;;;14.32;;
35312;SDS011;21425;50.454;30.466;2023-08-30T06:10:24;18.15;;;13.45;;
35312;SDS011;21425;50.454;30.466;2023-08-30T06:12:50;22.67;;;14.35;;
35312;SDS011;21425;50.454;30.466;2023-08-30T06:15:16;26.83;;;14.02;;
35312;SDS011;21425;50.454;30.466;2023-08-30T06:17:41;23.25;;;13.45;;
35312;SDS011;21425;50.454;30.466;2023-08-30T06:20:07;19.83;;;14.02;;
35312;SDS011;21425;50.454;30.466;2023-08-30T06:22:34;21.65;;;12.90;;
35312;SDS011;21425;50.454;30.466;2023-08-30T06:25:00;21.20;;;13.15;;
35312;SDS011;21425;50.454;30.466;2023-08-30T06:27:25;19.65;;;13.25;;
35312;SDS011;21425;50.454;30.466;2023-08-30T06:29:51;21.77;;;13.82;;
35312;SDS011;21425;50.454;30.466;2023-08-30T06:32:17;22.80;;;13.27;;
35312;SDS011;21425;50.454;30.466;2023-08-30T06:34:43;19.70;;;13.60;;
35312;SDS011;21425;50.454;30.466;2023-08-30T06:37:09;18.30;;;12.65;;
35312;SDS011;21425;50.454;30.466;2023-08-30T06:39:35;17.60;;;12.82;;
35312;SDS011;21425;50.454;30.466;2023-08-30T06:42:02;20.30;;;12.95;;
35312;SDS011;21425;50.454;30.466;2023-08-30T06:44:28;15.57;;;12.07;;
35312;SDS011;21425;50.454;30.466;2023-08-30T06:46:55;24.20;;;13.70;;
35312;SDS011;21425;50.454;30.466;2023-08-30T06:49:21;30.20;;;13.45;;
35312;SDS011;21425;50.454;30.466;2023-08-30T06:51:47;24.00;;;13.40;;
35312;SDS011;21425;50.454;30.466;2023-08-30T06:54:13;17.00;;;12.68;;
35312;SDS011;21425;50.454;30.466;2023-08-30T06:56:39;21.05;;;13.30;;
35312;SDS011;21425;50.454;30.466;2023-08-30T06:59:05;19.15;;;13.48;;
35312;SDS011;21425;50.454;30.466;2023-08-30T07:01:30;18.85;;;12.85;;
35312;SDS011;21425;50.454;30.466;2023-08-30T07:03:56;21.63;;;14.27;;
35312;SDS011;21425;50.454;30.466;2023-08-30T07:06:22;28.02;;;16.27;;
35312;SDS011;21425;50.454;30.466;2023-08-30T07:08:49;21.60;;;16.10;;
35312;SDS011;21425;50.454;30.466;2023-08-30T07:11:14;20.98;;;16.42;;
35312;SDS011;21425;50.454;30.466;2023-08-30T07:13:40;27.48;;;16.30;;
35312;SDS011;21425;50.454;30.466;2023-08-30T07:16:06;25.88;;;15.98;;
35312;SDS011;21425;50.454;30.466;2023-08-30T07:18:32;24.45;;;16.60;;
35312;SDS011;21425;50.454;30.466;2023-08-30T07:20:58;24.83;;;16.35;;
35312;SDS011;21425;50.454;30.466;2023-08-30T07:23:24;23.90;;;16.55;;
35312;SDS011;21425;50.454;30.466;2023-08-30T07:25:51;27.73;;;16.42;;
35312;SDS011;21425;50.454;30.466;2023-08-30T07:28:17;20.65;;;16.52;;
35312;SDS011;21425;50.454;30.466;2023-08-30T07:30:42;22.92;;;15.05;;
35312;SDS011;21425;50.454;30.466;2023-08-30T07:33:08;29.55;;;16.98;;
35312;SDS011;21425;50.454;30.466;2023-08-30T07:35:34;22.02;;;16.73;;
35312;SDS011;21425;50.454;30.466;2023-08-30T07:38:00;22.85;;;15.32;;
35312;SDS011;21425;50.454;30.466;2023-08-30T07:40:26;27.95;;;17.23;;
35312;SDS011;21425;50.454;30.466;2023-08-30T07:42:53;25.30;;;16.75;;
35312;SDS011;21425;50.454;30.466;2023-08-30T07:45:19;24.48;;;15.05;;
35312;SDS011;21425;50.454;30.466;2023-08-30T07:47:48;34.90;;;16.30;;
35312;SDS011;21425;50.454;30.466;2023-08-30T07:50:14;22.23;;;14.95;;
35312;SDS011;21425;50.454;30.466;2023-08-30T07:52:39;17.98;;;14.93;;
35312;SDS011;21425;50.454;30.466;2023-08-30T07:55:06;26.33;;;14.95;;
35312;SDS011;21425;50.454;30.466;2023-08-30T07:57:32;17.10;;;14.40;;
35312;SDS011;21425;50.454;30.466;2023-08-30T07:59:57;23.65;;;14.80;;
35312;SDS011;21425;50.454;30.466;2023-08-30T08:02:23;20.05;;;14.00;;
35312;SDS011;21425;50.454;30.466;2023-08-30T08:04:49;21.25;;;14.93;;
35312;SDS011;21425;50.454;30.466;2023-08-30T08:07:15;22.27;;;14.90;;
35312;SDS011;21425;50.454;30.466;2023-08-30T08:09:40;23.58;;;14.45;;
35312;SDS011;21425;50.454;30.466;2023-08-30T08:12:06;19.45;;;13.57;;
35312;SDS011;21425;50.454;30.466;2023-08-30T08:14:32;20.20;;;12.73;;
35312;SDS011;21425;50.454;30.466;2023-08-30T08:16:58;24.83;;;14.15;;
35312;SDS011;21425;50.454;30.466;2023-08-30T08:19:24;19.48;;;13.48;;
35312;SDS011;21425;50.454;30.466;2023-08-30T08:21:51;19.70;;;13.68;;
35312;SDS011;21425;50.454;30.466;2023-08-30T08:24:18;16.15;;;11.95;;
35312;SDS011;21425;50.454;30.466;2023-08-30T08:26:44;18.33;;;13.30;;
35312;SDS011;21425;50.454;30.466;2023-08-30T08:29:10;16.27;;;12.25;;
35312;SDS011;21425;50.454;30.466;2023-08-30T08:31:37;22.60;;;13.38;;
35312;SDS011;21425;50.454;30.466;2023-08-30T08:34:10;25.02;;;13.75;;
35312;SDS011;21425;50.454;30.466;2023-08-30T08:39:07;22.75;;;11.98;;
35312;SDS011;21425;50.454;30.466;2023-08-30T08:41:41;19.38;;;12.20;;
35312;SDS011;21425;50.454;30.466;2023-08-30T08:44:11;15.10;;;11.70;;
35312;SDS011;21425;50.454;30.466;2023-08-30T08:46:38;19.38;;;11.40;;
35312;SDS011;21425;50.454;30.466;2023-08-30T08:49:12;17.15;;;11.90;;
35312;SDS011;21425;50.454;30.466;2023-08-30T08:51:40;18.83;;;10.98;;
35312;SDS011;21425;50.454;30.466;2023-08-30T08:54:08;14.95;;;10.80;;
35312;SDS011;21425;50.454;30.466;2023-08-30T08:56:34;14.80;;;10.85;;
35312;SDS011;21425;50.454;30.466;2023-08-30T08:59:00;22.42;;;10.98;;
35312;SDS011;21425;50.454;30.466;2023-08-30T09:01:27;19.10;;;11.60;;
35312;SDS011;21425;50.454;30.466;2023-08-30T09:03:53;22.13;;;11.82;;
35312;SDS011;21425;50.454;30.466;2023-08-30T09:06:19;19.23;;;10.98;;
35312;SDS011;21425;50.454;30.466;2023-08-30T09:08:49;14.38;;;10.07;;
35312;SDS011;21425;50.454;30.466;2023-08-30T09:11:15;18.67;;;10.82;;
35312;SDS011;21425;50.454;30.466;2023-08-30T09:13:42;18.05;;;9.77;;
35312;SDS011;21425;50.454;30.466;2023-08-30T09:16:14;16.52;;;9.80;;
35312;SDS011;21425;50.454;30.466;2023-08-30T09:18:41;16.52;;;10.02;;
35312;SDS011;21425;50.454;30.466;2023-08-30T09:21:07;17.98;;;10.15;;
35312;SDS011;21425;50.454;30.466;2023-08-30T09:23:33;15.40;;;9.52;;
35312;SDS011;21425;50.454;30.466;2023-08-30T09:25:59;17.02;;;9.98;;
35312;SDS011;21425;50.454;30.466;2023-08-30T09:28:25;13.00;;;10.13;;
35312;SDS011;21425;50.454;30.466;2023-08-30T09:30:52;14.20;;;9.52;;
35312;SDS011;21425;50.454;30.466;2023-08-30T09:33:21;16.80;;;9.90;;
35312;SDS011;21425;50.454;30.466;2023-08-30T09:35:47;16.30;;;9.65;;
35312;SDS011;21425;50.454;30.466;2023-08-30T09:38:19;15.45;;;9.73;;
35312;SDS011;21425;50.454;30.466;2023-08-30T09:40:45;17.98;;;9.65;;
35312;SDS011;21425;50.454;30.466;2023-08-30T09:43:12;13.48;;;9.07;;
35312;SDS011;21425;50.454;30.466;2023-08-30T09:45:38;12.95;;;9.32;;
35312;SDS011;21425;50.454;30.466;2023-08-30T09:48:07;15.45;;;9.30;;
35312;SDS011;21425;50.454;30.466;2023-08-30T09:50:34;15.63;;;9.57;;
35312;SDS011;21425;50.454;30.466;2023-08-30T09:53:06;11.55;;;9.20;;
35312;SDS011;21425;50.454;30.466;2023-08-30T09:55:33;17.08;;;9.93;;
35312;SDS011;21425;50.454;30.466;2023-08-30T09:58:00;13.27;;;10.27;;
35312;SDS011;21425;50.454;30.466;2023-08-30T10:00:27;12.07;;;10.15;;
35312;SDS011;21425;50.454;30.466;2023-08-30T10:02:53;14.30;;;9.35;;
35312;SDS011;21425;50.454;30.466;2023-08-30T10:05:20;22.27;;;9.32;;
35312;SDS011;21425;50.454;30.466;2023-08-30T10:07:46;13.95;;;9.45;;
35312;SDS011;21425;50.454;30.466;2023-08-30T10:10:12;11.77;;;8.88;;
35312;SDS011;21425;50.454;30.466;2023-08-30T10:12:39;15.88;;;9.50;;
35312;SDS011;21425;50.454;30.466;2023-08-30T10:15:05;17.13;;;9.27;;
35312;SDS011;21425;50.454;30.466;2023-08-30T10:17:32;14.82;;;9.30;;
35312;SDS011;21425;50.454;30.466;2023-08-30T10:19:59;11.95;;;9.57;;
35312;SDS011;21425;50.454;30.466;2023-08-30T10:22:27;12.10;;;8.93;;
35312;SDS011;21425;50.454;30.466;2023-08-30T10:24:57;15.52;;;9.23;;
35312;SDS011;21425;50.454;30.466;2023-08-30T10:27:27;20.95;;;10.05;;
35312;SDS011;21425;50.454;30.466;2023-08-30T10:29:54;12.77;;;8.88;;
35312;SDS011;21425;50.454;30.466;2023-08-30T10:32:21;12.77;;;8.70;;
35312;SDS011;21425;50.454;30.466;2023-08-30T10:34:47;14.20;;;9.15;;
35312;SDS011;21425;50.454;30.466;2023-08-30T10:37:21;17.60;;;8.80;;
35312;SDS011;21425;50.454;30.466;2023-08-30T10:39:51;15.88;;;8.98;;
35312;SDS011;21425;50.454;30.466;2023-08-30T10:42:20;15.82;;;9.48;;
35312;SDS011;21425;50.454;30.466;2023-08-30T10:44:57;13.40;;;8.65;;
35312;SDS011;21425;50.454;30.466;2023-08-30T10:47:24;17.15;;;9.18;;
35312;SDS011;21425;50.454;30.466;2023-08-30T10:49:54;11.65;;;8.93;;
35312;SDS011;21425;50.454;30.466;2023-08-30T10:52:21;14.52;;;9.20;;
35312;SDS011;21425;50.454;30.466;2023-08-30T10:54:47;13.30;;;8.07;;
35312;SDS011;21425;50.454;30.466;2023-08-30T10:57:14;10.73;;;8.90;;
35312;SDS011;21425;50.454;30.466;2023-08-30T10:59:47;12.45;;;8.88;;
35312;SDS011;21425;50.454;30.466;2023-08-30T11:02:29;15.63;;;9.35;;
35312;SDS011;21425;50.454;30.466;2023-08-30T11:04:57;11.88;;;9.40;;
35312;SDS011;21425;50.454;30.466;2023-08-30T11:07:24;12.88;;;9.20;;
35312;SDS011;21425;50.454;30.466;2023-08-30T11:09:51;15.15;;;9.40;;
35312;SDS011;21425;50.454;30.466;2023-08-30T11:12:17;13.93;;;9.35;;
35312;SDS011;21425;50.454;30.466;2023-08-30T11:14:43;13.07;;;9.25;;
35312;SDS011;21425;50.454;30.466;2023-08-30T11:17:10;14.10;;;9.00;;
35312;SDS011;21425;50.454;30.466;2023-08-30T11:19:36;13.27;;;8.57;;
35312;SDS011;21425;50.454;30.466;2023-08-30T11:22:02;16.10;;;8.90;;
35312;SDS011;21425;50.454;30.466;2023-08-30T11:24:28;18.17;;;9.13;;
35312;SDS011;21425;50.454;30.466;2023-08-30T11:26:55;31.02;;;10.15;;
35312;SDS011;21425;50.454;30.466;2023-08-30T11:29:21;14.38;;;9.52;;
35312;SDS011;21425;50.454;30.466;2023-08-30T11:31:47;19.85;;;9.15;;
35312;SDS011;21425;50.454;30.466;2023-08-30T11:34:14;18.42;;;9.60;;
35312;SDS011;21425;50.454;30.466;2023-08-30T11:36:44;15.65;;;9.45;;
35312;SDS011;21425;50.454;30.466;2023-08-30T11:39:12;14.02;;;8.57;;
35312;SDS011;21425;50.454;30.466;2023-08-30T11:41:39;14.15;;;8.68;;
35312;SDS011;21425;50.454;30.466;2023-08-30T11:44:05;13.45;;;9.10;;
35312;SDS011;21425;50.454;30.466;2023-08-30T11:46:31;13.70;;;8.60;;
35312;SDS011;21425;50.454;30.466;2023-08-30T11:48:57;15.50;;;9.20;;
35312;SDS011;21425;50.454;30.466;2023-08-30T11:51:23;9.90;;;8.45;;
35312;SDS011;21425;50.454;30.466;2023-08-30T11:53:49;17.85;;;9.02;;
35312;SDS011;21425;50.454;30.466;2023-08-30T11:56:15;25.00;;;8.68;;
35312;SDS011;21425;50.454;30.466;2023-08-30T11:58:42;14.27;;;9.27;;
35312;SDS011;21425;50.454;30.466;2023-08-30T12:01:08;16.60;;;8.88;;
35312;SDS011;21425;50.454;30.466;2023-08-30T12:03:34;12.68;;;8.13;;
35312;SDS011;21425;50.454;30.466;2023-08-30T12:06:01;12.88;;;8.23;;
35312;SDS011;21425;50.454;30.466;2023-08-30T12:08:28;12.32;;;7.90;;
35312;SDS011;21425;50.454;30.466;2023-08-30T12:10:56;15.95;;;8.38;;
35312;SDS011;21425;50.454;30.466;2023-08-30T12:13:23;9.90;;;7.70;;
35312;SDS011;21425;50.454;30.466;2023-08-30T12:15:53;10.93;;;7.43;;
35312;SDS011;21425;50.454;30.466;2023-08-30T12:18:23;11.40;;;7.50;;
35312;SDS011;21425;50.454;30.466;2023-08-30T12:20:55;10.68;;;8.02;;
35312;SDS011;21425;50.454;30.466;2023-08-30T12:23:29;13.25;;;7.13;;
35312;SDS011;21425;50.454;30.466;2023-08-30T12:25:59;14.73;;;8.20;;
35312;SDS011;21425;50.454;30.466;2023-08-30T12:28:26;11.75;;;7.72;;
35312;SDS011;21425;50.454;30.466;2023-08-30T12:30:52;13.55;;;7.50;;
35312;SDS011;21425;50.454;30.466;2023-08-30T12:33:18;15.43;;;8.25;;
35312;SDS011;21425;50.454;30.466;2023-08-30T12:35:44;13.23;;;7.70;;
35312;SDS011;21425;50.454;30.466;2023-08-30T12:38:10;11.80;;;7.72;;
35312;SDS011;21425;50.454;30.466;2023-08-30T12:40:37;14.98;;;7.32;;
35312;SDS011;21425;50.454;30.466;2023-08-30T12:43:03;13.45;;;8.27;;
35312;SDS011;21425;50.454;30.466;2023-08-30T12:45:30;13.43;;;8.18;;
35312;SDS011;21425;50.454;30.466;2023-08-30T12:47:56;9.05;;;6.85;;
35312;SDS011;21425;50.454;30.466;2023-08-30T12:50:23;10.43;;;7.65;;
35312;SDS011;21425;50.454;30.466;2023-08-30T12:52:49;16.67;;;7.30;;
35312;SDS011;21425;50.454;30.466;2023-08-30T12:55:15;8.05;;;6.50;;
35312;SDS011;21425;50.454;30.466;2023-08-30T12:57:42;11.82;;;6.78;;
35312;SDS011;21425;50.454;30.466;2023-08-30T13:00:11;10.20;;;6.97;;
35312;SDS011;21425;50.454;30.466;2023-08-30T13:02:40;10.45;;;6.72;;
35312;SDS011;21425;50.454;30.466;2023-08-30T13:05:06;9.43;;;7.22;;
35312;SDS011;21425;50.454;30.466;2023-08-30T13:07:32;8.95;;;6.97;;
35312;SDS011;21425;50.454;30.466;2023-08-30T13:09:58;9.90;;;6.82;;
35312;SDS011;21425;50.454;30.466;2023-08-30T13:12:23;12.02;;;7.05;;
35312;SDS011;21425;50.454;30.466;2023-08-30T13:14:49;12.82;;;6.90;;
35312;SDS011;21425;50.454;30.466;2023-08-30T13:17:14;12.25;;;6.72;;
35312;SDS011;21425;50.454;30.466;2023-08-30T13:19:42;8.35;;;6.75;;
35312;SDS011;21425;50.454;30.466;2023-08-30T13:22:08;12.35;;;7.97;;
35312;SDS011;21425;50.454;30.466;2023-08-30T13:24:35;13.10;;;6.65;;
35312;SDS011;21425;50.454;30.466;2023-08-30T13:27:01;10.02;;;7.32;;
35312;SDS011;21425;50.454;30.466;2023-08-30T13:29:27;12.70;;;6.93;;
35312;SDS011;21425;50.454;30.466;2023-08-30T13:31:53;10.18;;;6.63;;
35312;SDS011;21425;50.454;30.466;2023-08-30T13:34:18;9.63;;;6.88;;
35312;SDS011;21425;50.454;30.466;2023-08-30T13:36:44;12.02;;;6.90;;
35312;SDS011;21425;50.454;30.466;2023-08-30T13:39:10;10.10;;;6.97;;
35312;SDS011;21425;50.454;30.466;2023-08-30T13:41:36;17.77;;;6.78;;
35312;SDS011;21425;50.454;30.466;2023-08-30T13:44:01;14.55;;;7.13;;
35312;SDS011;21425;50.454;30.466;2023-08-30T13:46:31;11.35;;;6.65;;
35312;SDS011;21425;50.454;30.466;2023-08-30T13:48:57;8.13;;;7.25;;
35312;SDS011;21425;50.454;30.466;2023-08-30T13:51:24;11.45;;;6.95;;
35312;SDS011;21425;50.454;30.466;2023-08-30T13:53:51;9.93;;;7.00;;
35312;SDS011;21425;50.454;30.466;2023-08-30T13:56:18;11.82;;;7.38;;
35312;SDS011;21425;50.454;30.466;2023-08-30T13:58:44;15.38;;;7.25;;
35312;SDS011;21425;50.454;30.466;2023-08-30T14:01:10;9.82;;;7.32;;
35312;SDS011;21425;50.454;30.466;2023-08-30T14:03:36;12.40;;;7.95;;
35312;SDS011;21425;50.454;30.466;2023-08-30T14:06:02;18.70;;;8.30;;
35312;SDS011;21425;50.454;30.466;2023-08-30T14:08:28;14.73;;;7.30;;
35312;SDS011;21425;50.454;30.466;2023-08-30T14:10:55;16.55;;;8.40;;
35312;SDS011;21425;50.454;30.466;2023-08-30T14:13:20;10.65;;;7.72;;
35312;SDS011;21425;50.454;30.466;2023-08-30T14:15:46;13.00;;;7.32;;
35312;SDS011;21425;50.454;30.466;2023-08-30T14:18:12;13.65;;;8.13;;